Werte bis 5 Uhr SommerzeitDiagramme Niedergude: Tagesdaten MonatsdatenCSV-Datei: Niedergude20.csv

Wetterdaten 2020 Station: Niedergude
Temperaturen in °C relative Nieder- Global- Wind Wind Wind- Sonnen-
Datum Boden Boden Luft Luft Luft Luft Feuchte schlag strahlung max richtung schein
20 cm 5 cm 20 cm 2 m 2 m max 2 m min % mm W/m2*d m/s m/s ° h

20.09.2020 12,5 13,2 7,8 9,7 13,4 8,6 52 0,0 0 0,6 1,2 --- ---
19.09.2020 12,5 13,4 14,6 15,6 25,5 5,6 39 0,0 3462 1,1 7,9 --- 8,2
18.09.2020 12,9 13,9 14,5 15,1 21,8 8,8 41 0,0 3600 2,0 8,1 --- 8,6
17.09.2020 13,5 14,9 14,8 15,2 20,0 8,7 55 0,0 3782 1,8 8,4 --- 9,1
16.09.2020 13,3 15,0 19,7 20,1 31,7 10,8 63 0,0 2542 0,7 7,6 --- 9,3
15.09.2020 13,2 14,7 19,1 19,8 31,8 11,3 64 0,0 2638 0,5 2,4 --- 8,9
14.09.2020 12,9 14,4 18,9 19,8 32,0 9,9 62 0,0 3483 0,5 4,3 --- 8,8
13.09.2020 12,8 14,1 16,8 16,9 28,1 7,9 63 0,0 3641 0,6 3,3 --- 9,2
12.09.2020 12,7 14,0 16,6 16,4 26,5 7,1 61 0,0 3842 1,2 8,7 --- 9,8
11.09.2020 13,0 14,0 13,8 13,5 24,1 5,2 64 0,0 3978 0,8 4,7 --- 9,4
10.09.2020 13,6 15,2 15,7 16,0 23,1 8,9 61 0,8 4255 1,0 6,2 --- 9,0
09.09.2020 13,2 14,7 18,0 18,0 25,1 10,3 66 0,0 3123 1,1 6,6 --- 8,8
08.09.2020 12,9 14,2 16,7 15,9 25,0 6,7 61 0,0 4488 1,2 7,5 --- 9,9
07.09.2020 13,0 14,2 14,4 13,8 24,1 6,2 65 0,0 4832 0,7 4,6 --- 10,0
06.09.2020 13,4 14,5 12,9 12,5 19,0 6,4 69 0,0 3105 0,7 6,1 --- 8,1
05.09.2020 14,2 15,9 14,1 14,7 19,5 10,0 75 0,0 2474 0,8 5,9 --- 7,2
04.09.2020 13,8 15,8 19,6 19,7 25,0 16,1 68 0,0 2334 1,2 9,9 --- 7,6
03.09.2020 13,3 14,4 13,1 13,1 21,0 5,3 75 1,6 2075 0,9 6,6 --- 7,3
02.09.2020 13,7 15,1 14,6 13,8 21,5 8,4 66 0,0 4299 0,7 5,1 --- 9,3
01.09.2020 13,8 15,1 13,4 13,2 20,1 7,6 76 0,1 2655 0,7 5,5 --- 8,5
31.08.2020 14,1 15,7 14,8 14,9 18,6 12,7 84 8,7 1339 0,8 4,1 --- 4,5
30.08.2020 14,2 15,5 14,4 14,5 22,0 9,0 75 12,1 1711 0,5 3,5 --- 6,3
29.08.2020 14,6 16,1 15,4 15,4 21,8 9,6 64 0,0 2738 1,1 7,0 --- 8,0
28.08.2020 14,8 16,6 17,6 17,4 24,4 13,2 65 3,2 2595 0,9 8,8 --- 6,5
27.08.2020 14,7 16,4 18,2 17,3 24,8 13,4 55 0,0 3429 1,4 7,1 --- 9,7
26.08.2020 15,0 16,4 18,1 18,6 20,4 16,5 48 0,0 1476 3,8 17,3 --- 4,2
25.08.2020 15,2 16,6 16,3 16,4 23,1 8,2 62 0,3 2644 0,8 7,3 --- 7,5
24.08.2020 16,1 17,8 16,8 16,2 21,0 10,7 66 0,6 2929 1,3 9,7 --- 8,5
23.08.2020 16,6 18,5 18,8 18,1 23,5 14,5 60 0,8 3713 1,7 12,0 --- 9,3
22.08.2020 16,9 19,4 22,2 21,9 26,4 15,1 60 2,4 3488 1,4 8,4 --- 9,6
21.08.2020 16,6 19,0 24,5 24,5 31,4 17,8 62 0,0 3092 0,9 7,4 --- 8,1
20.08.2020 16,4 18,7 22,9 22,0 31,5 14,9 65 0,0 4156 0,7 5,1 --- 9,4
19.08.2020 16,3 18,5 20,2 19,6 28,6 13,0 65 0,2 5622 0,5 4,4 --- 10,2
18.08.2020 16,3 18,5 20,1 19,0 25,3 15,2 73 6,0 4371 0,9 6,1 --- 10,5
17.08.2020 16,7 18,7 19,2 19,4 22,6 15,7 83 4,9 1235 0,4 3,2 --- 4,2
16.08.2020 16,7 19,1 23,2 23,3 29,5 16,2 65 1,3 4437 0,8 5,0 --- 10,3
15.08.2020 16,6 19,1 21,8 21,5 28,0 16,7 76 2,7 4332 0,6 4,8 --- 8,3
14.08.2020 16,5 18,7 20,9 20,8 25,4 18,7 85 1,6 1324 0,5 2,6 --- 7,1
13.08.2020 16,6 19,0 22,7 22,7 25,8 20,3 71 0,4 1769 0,7 5,1 --- 5,3
12.08.2020 16,4 19,0 26,0 26,0 33,4 17,8 50 0,0 4368 0,9 8,3 --- 10,5
11.08.2020 16,2 18,8 26,3 26,5 33,4 20,2 50 0,0 5603 1,8 7,5 --- 10,0
10.08.2020 16,1 18,5 22,7 23,2 26,5 20,2 63 0,7 2113 1,5 8,2 --- 6,7
09.08.2020 15,9 18,4 25,8 26,2 37,9 17,1 47 0,0 3941 0,6 4,8 --- 9,3
08.08.2020 15,4 18,0 26,3 26,6 37,3 15,2 41 0,0 6413 0,6 3,5 --- 11,8
07.08.2020 15,0 17,2 24,1 24,2 35,0 12,2 39 0,0 6598 0,6 4,0 --- 12,1
06.08.2020 14,8 16,8 21,9 22,0 32,9 10,1 42 0,0 6774 0,6 5,1 --- 12,3
05.08.2020 14,6 16,5 19,8 19,1 29,7 7,9 51 0,0 6565 0,7 5,4 --- 12,4
04.08.2020 15,0 16,8 18,3 17,3 24,2 11,4 53 0,0 5338 1,0 6,9 --- 11,6
03.08.2020 15,3 17,4 17,7 17,5 22,5 12,6 61 0,0 3731 0,8 5,0 --- 11,7
02.08.2020 15,4 17,8 20,3 20,0 24,9 16,8 73 9,1 2523 0,9 5,4 --- 7,8
01.08.2020 15,1 17,5 23,7 23,5 33,1 13,9 52 0,0 4530 0,9 7,2 --- 9,6
31.07.2020 14,7 17,0 23,0 22,9 33,4 10,8 43 0,0 7042 0,6 3,5 --- 12,6
30.07.2020 14,6 16,7 20,1 18,9 29,4 8,1 49 0,0 6908 0,8 4,8 --- 12,2
29.07.2020 14,9 16,9 19,0 17,2 25,6 8,4 54 0,0 6267 1,4 8,0 --- 12,8
28.07.2020 15,1 17,6 22,2 21,1 26,2 13,6 49 0,0 5332 1,9 9,8 --- 11,3
27.07.2020 14,9 17,0 19,8 19,6 27,8 9,8 58 0,0 3180 0,5 4,9 --- 10,4
26.07.2020 15,0 17,6 21,1 20,1 25,1 14,1 57 3,5 4934 1,6 8,1 --- 10,3
25.07.2020 14,6 17,1 21,4 20,1 27,0 13,1 57 0,0 4182 1,1 5,6 --- 10,6
24.07.2020 14,2 16,5 21,0 19,7 26,6 11,5 51 0,0 5182 1,2 9,9 --- 10,2
23.07.2020 14,0 16,0 18,7 17,7 26,3 8,2 51 0,0 6668 0,7 4,4 --- 12,3
22.07.2020 14,0 15,9 17,6 16,7 26,1 6,5 51 0,0 6835 0,8 4,3 --- 13,0
21.07.2020 14,2 16,1 17,3 15,9 23,5 7,3 55 0,0 6448 1,0 8,1 --- 12,7
20.07.2020 14,5 16,7 18,6 17,5 23,1 11,6 66 0,0 4410 1,2 8,2 --- 10,2
19.07.2020 14,3 16,7 21,6 20,4 30,1 10,5 54 0,0 5578 0,7 4,2 --- 11,8
18.07.2020 13,9 16,1 19,9 18,8 28,7 8,0 56 0,0 7128 0,6 3,6 --- 12,3
17.07.2020 13,9 15,9 17,1 16,3 24,0 10,3 68 0,0 4075 0,6 4,2 --- 10,5
16.07.2020 14,0 15,7 14,2 13,8 18,5 10,8 84 0,6 1532 0,5 3,2 --- 5,0
15.07.2020 14,3 16,4 16,2 15,3 20,5 12,1 79 4,5 2995 0,9 5,6 --- 7,5
14.07.2020 14,0 16,1 19,7 18,9 29,3 8,9 53 0,2 5010 0,9 6,2 --- 9,4
13.07.2020 13,8 15,6 18,7 18,0 27,7 7,1 51 0,0 7418 0,6 3,1 --- 12,9
12.07.2020 13,9 15,6 15,8 15,3 24,0 6,8 58 0,0 5603 0,7 5,1 --- 12,0
11.07.2020 14,3 16,1 16,0 14,5 20,9 7,4 59 0,0 5771 0,9 5,7 --- 12,0
10.07.2020 14,7 17,0 18,8 18,0 22,9 12,4 70 0,0 3367 1,8 9,8 --- 10,9
09.07.2020 14,3 16,5 18,7 18,4 25,2 14,1 75 3,0 2614 1,0 9,7 --- 6,7
08.07.2020 14,3 16,2 14,7 14,2 16,8 12,2 82 4,2 2035 0,8 3,9 --- 7,9
07.07.2020 14,3 16,0 16,1 14,4 22,1 8,1 61 0,0 5512 1,0 6,5 --- 10,7
06.07.2020 15,0 16,9 15,7 15,1 20,1 9,9 64 2,2 3996 2,4 10,9 --- 9,2
05.07.2020 15,0 17,6 22,0 21,7 27,2 19,1 59 0,0 3304 2,7 12,2 --- 7,2
04.07.2020 14,8 17,0 19,2 18,3 23,9 10,2 57 0,0 4602 1,8 10,4 --- 10,4
03.07.2020 14,9 17,2 18,9 17,0 22,5 12,3 65 0,1 5808 1,4 7,4 --- 12,8
02.07.2020 14,8 17,3 19,7 18,3 24,6 14,2 71 10,4 5351 1,2 8,5 --- 10,8
01.07.2020 14,5 16,8 20,9 20,4 26,7 16,3 60 5,1 3050 1,5 8,6 --- 9,3
30.06.2020 14,4 16,3 18,0 16,7 21,5 10,1 50 0,0 5674 2,3 12,1 --- 12,1
29.06.2020 14,8 16,8 18,2 16,5 22,3 10,7 63 0,0 5670 1,2 8,8 --- 11,1
28.06.2020 15,3 17,7 20,9 20,2 24,3 13,7 59 0,1 3135 1,5 9,8 --- 8,8
27.06.2020 14,9 17,5 23,9 22,2 29,2 14,6 60 0,0 6177 1,2 9,4 --- 11,7
26.06.2020 14,4 16,9 22,6 22,1 29,6 12,8 53 0,0 6686 0,8 5,3 --- 12,1
25.06.2020 14,2 16,6 20,9 20,5 26,8 14,0 60 0,0 5267 1,2 7,2 --- 12,6
24.06.2020 13,9 16,2 20,4 20,0 26,4 10,5 51 0,0 7778 1,2 6,1 --- 12,9
23.06.2020 13,7 15,8 19,9 18,9 28,5 9,0 56 0,0 7072 0,7 4,7 --- 13,1
22.06.2020 13,8 16,1 19,3 18,3 23,5 12,3 67 0,0 4037 1,0 5,6 --- 12,0
21.06.2020 13,4 15,6 20,3 18,1 26,3 8,9 59 0,0 7203 0,9 5,0 --- 12,6
20.06.2020 13,4 15,6 18,0 17,1 22,9 12,1 67 0,1 4078 1,0 5,2 --- 10,7
19.06.2020 13,4 15,6 18,1 16,9 22,9 12,6 75 0,6 4321 0,8 5,2 --- 10,1
18.06.2020 13,5 15,7 16,2 16,2 19,2 13,2 86 4,8 1206 0,6 3,3 --- 2,5
17.06.2020 13,2 15,5 18,7 18,1 25,5 12,0 75 0,0 4714 1,1 6,5 --- 10,7
16.06.2020 13,2 15,5 17,2 16,7 21,0 12,9 83 3,4 2269 0,6 3,7 --- 7,3
15.06.2020 13,5 15,8 16,0 15,9 17,6 14,4 90 23,4 1035 1,0 4,5 --- 1,8
14.06.2020 13,4 16,1 18,9 18,7 23,6 15,7 85 41,3 1746 0,8 3,4 --- 6,1
13.06.2020 13,0 16,2 23,0 22,8 30,2 15,5 60 0,0 6361 1,4 10,5 --- 11,2
12.06.2020 11,9 14,8 20,8 20,6 27,1 12,8 61 0,0 7485 2,0 8,1 --- 12,8
11.06.2020 11,4 13,6 15,4 15,2 18,8 12,1 78 1,9 2244 0,7 3,4 --- 8,9
10.06.2020 11,3 13,3 14,8 14,6 18,9 12,0 79 2,3 1958 0,6 5,0 --- 5,8
09.06.2020 11,1 12,9 13,2 13,0 19,4 6,3 79 3,9 2394 0,6 3,9 --- 8,3
08.06.2020 11,3 13,3 14,9 14,0 23,8 6,7 62 0,0 4503 0,6 6,2 --- 10,4
07.06.2020 11,2 13,2 15,1 13,6 18,1 8,3 60 0,0 5072 1,4 7,9 --- 12,1
06.06.2020 11,1 12,9 12,1 11,4 16,9 6,1 71 2,1 4298 0,9 8,1 --- 10,3
05.06.2020 11,5 13,4 11,3 10,7 15,1 8,4 77 5,7 2303 1,4 7,2 --- 7,4
04.06.2020 11,9 13,9 13,2 13,3 16,5 9,9 89 16,9 1235 0,7 7,4 --- 4,6
03.06.2020 11,9 14,6 19,0 18,9 27,7 10,4 54 0,0 4865 0,7 5,8 --- 9,8
02.06.2020 11,4 14,1 18,9 18,7 27,6 7,8 46 0,0 7454 1,0 6,7 --- 13,0
01.06.2020 11,0 13,5 17,2 16,8 25,8 5,8 50 0,0 8063 1,1 7,3 --- 13,3
31.05.2020 10,9 13,1 14,1 13,7 20,6 6,7 53 0,0 5878 1,5 7,4 --- 13,0
30.05.2020 10,8 13,0 13,5 13,6 21,4 5,9 46 0,0 5898 1,8 9,8 --- 11,2
29.05.2020 10,9 13,1 14,1 13,5 21,8 3,6 48 0,0 7827 1,2 7,0 --- 13,1
28.05.2020 11,0 13,7 15,6 15,0 20,1 7,9 46 0,0 8111 1,8 8,3 --- 13,0
27.05.2020 10,4 12,8 16,6 15,3 23,6 4,9 55 0,0 7377 0,9 6,5 --- 11,3
26.05.2020 10,5 12,5 13,0 12,5 20,8 3,9 63 0,0 4740 0,7 4,6 --- 11,7
25.05.2020 10,6 13,1 14,9 13,9 19,1 9,7 65 0,0 5334 2,0 8,6 --- 10,2
24.05.2020 10,7 12,7 12,1 11,8 17,1 7,6 70 3,7 3053 1,5 9,6 --- 6,7
23.05.2020 11,1 13,6 13,9 13,4 17,2 9,7 69 2,2 2729 1,4 7,4 --- 11,0
22.05.2020 10,6 13,3 18,1 18,3 25,7 9,6 61 7,4 2756 0,6 6,5 --- 9,9
21.05.2020 10,2 12,8 17,5 17,1 27,0 5,7 51 0,0 7503 0,8 5,4 --- 13,0
20.05.2020 10,3 13,0 15,4 15,4 20,1 9,6 70 0,0 2514 1,1 6,3 --- 7,9
19.05.2020 9,7 12,4 16,9 15,9 23,6 6,5 54 0,0 5798 1,2 6,1 --- 11,7
18.05.2020 9,1 11,7 16,1 14,6 24,0 3,4 53 0,0 6740 1,3 7,4 --- 12,5
17.05.2020 8,8 11,1 13,3 11,8 19,2 3,7 53 0,0 6772 1,3 6,8 --- 12,4
16.05.2020 8,2 10,2 12,2 10,5 18,7 -0,5 52 0,0 7482 1,0 5,8 --- 11,5
15.05.2020 8,0 9,8 9,6 8,9 16,1 -0,4 50 0,0 6935 1,2 7,4 --- 12,7
14.05.2020 8,1 10,0 8,6 8,4 14,0 2,2 58 0,0 4342 1,5 6,1 --- 10,8
13.05.2020 7,9 9,5 8,9 8,4 14,6 1,2 55 0,0 4218 0,8 4,4 --- 10,7
12.05.2020 8,1 9,3 6,6 5,2 10,8 -2,0 62 0,0 4533 1,1 4,9 --- 12,3
11.05.2020 9,4 11,1 6,0 6,2 15,5 1,1 78 6,2 1097 1,6 9,3 --- 1,6
10.05.2020 9,5 12,0 15,9 15,7 24,2 8,1 65 0,0 2673 0,6 2,8 --- 7,7
09.05.2020 9,1 11,8 15,9 16,2 25,7 6,9 44 0,0 5418 1,2 6,4 --- 11,3
08.05.2020 8,5 11,0 15,5 14,8 24,6 4,5 42 0,0 6584 1,0 5,8 --- 11,1
07.05.2020 8,0 10,1 12,6 11,5 23,2 0,6 47 0,0 7430 1,0 5,6 --- 12,3
06.05.2020 7,8 9,6 9,5 9,0 17,7 -1,3 51 0,0 7300 1,1 5,6 --- 12,5
05.05.2020 7,9 9,5 7,6 7,4 14,2 0,3 57 0,0 6936 1,3 7,5 --- 12,1
04.05.2020 8,4 10,2 8,6 9,0 12,8 3,3 83 2,5 1275 0,8 5,1 --- 4,2
03.05.2020 8,3 10,3 11,2 10,2 15,4 4,4 67 0,0 3835 1,0 6,4 --- 9,1
02.05.2020 8,3 10,1 8,9 8,6 13,2 4,6 78 2,8 2811 1,4 9,7 --- 5,2
01.05.2020 8,6 10,6 10,1 9,7 14,8 5,0 73 2,6 2763 1,4 7,6 --- 7,7
30.04.2020 8,7 10,9 11,8 11,7 16,5 7,5 74 3,1 2763 1,3 9,3 --- 6,7
29.04.2020 8,5 10,9 13,6 13,0 19,7 8,0 65 0,0 3976 1,5 9,6 --- 10,0
28.04.2020 8,4 10,3 11,4 11,8 17,7 4,2 71 2,4 1538 0,6 4,2 --- 6,3
27.04.2020 8,2 10,5 13,5 12,9 23,1 1,7 49 0,0 5937 1,1 7,8 --- 11,6
26.04.2020 8,1 10,1 11,3 10,5 20,7 -0,1 55 0,0 6689 0,9 5,1 --- 11,7
25.04.2020 8,3 10,5 10,7 10,3 16,6 4,6 51 0,0 5258 1,7 6,0 --- 11,3
24.04.2020 8,1 10,4 13,6 12,9 21,5 3,6 51 0,0 5602 1,8 8,4 --- 10,8
23.04.2020 7,9 10,1 13,3 13,5 21,7 3,1 40 0,0 6609 1,7 9,9 --- 11,5
22.04.2020 7,7 9,8 13,5 13,4 19,1 6,3 31 0,0 6796 4,2 13,6 --- 11,7
21.04.2020 7,6 9,3 12,2 12,1 17,3 6,5 32 0,0 6626 4,9 15,9 --- 11,3
20.04.2020 7,9 9,4 10,8 10,7 15,3 5,5 29 0,0 6640 4,5 16,2 --- 11,2
19.04.2020 8,2 10,6 11,4 11,5 16,7 7,4 55 6,4 5507 2,7 10,5 --- 9,7
18.04.2020 7,6 10,1 15,0 15,2 25,2 6,4 58 0,2 4086 1,0 6,2 --- 8,4
17.04.2020 7,0 9,5 14,6 14,7 24,9 4,6 49 0,0 5622 1,1 4,9 --- 10,4
16.04.2020 6,3 8,4 12,7 12,7 23,5 1,1 50 0,0 5591 0,9 6,6 --- 10,4
15.04.2020 5,8 7,4 8,1 7,3 19,3 -2,1 58 0,0 5503 0,9 4,7 --- 10,7
14.04.2020 6,2 7,4 5,0 4,6 9,7 -0,2 54 0,1 3744 1,9 9,0 --- 9,5
13.04.2020 6,9 8,5 7,7 7,6 11,2 3,1 56 0,0 3823 2,6 10,6 --- 8,5
12.04.2020 6,7 8,8 13,2 13,1 22,8 3,0 47 0,0 4890 1,3 9,6 --- 9,2
11.04.2020 6,5 8,3 10,0 10,5 21,0 0,3 41 0,0 5724 1,1 6,1 --- 10,5
10.04.2020 6,6 8,7 12,2 11,8 19,1 3,4 52 0,0 5636 1,3 7,6 --- 10,2
09.04.2020 6,4 8,6 12,6 12,8 21,7 3,6 54 0,0 5209 1,2 6,8 --- 10,3
08.04.2020 6,1 8,6 15,3 15,7 24,9 6,9 46 0,0 5260 1,2 7,3 --- 10,3
07.04.2020 5,3 7,6 13,1 13,5 21,6 4,3 57 0,0 5231 1,7 8,4 --- 10,2
06.04.2020 4,7 6,7 12,6 13,1 23,2 2,9 41 0,0 5387 1,3 8,8 --- 10,3
05.04.2020 4,2 6,1 9,9 10,9 19,4 1,1 43 0,0 5337 1,6 9,9 --- 10,3
04.04.2020 3,7 5,7 7,2 7,8 14,9 -0,2 58 0,0 5032 1,0 5,1 --- 10,1
03.04.2020 3,5 4,8 5,3 6,0 8,8 0,4 75 0,5 761 1,2 4,2 --- 2,0
02.04.2020 3,1 4,4 4,9 4,4 12,2 -4,1 58 0,0 5000 1,4 8,0 --- 9,8
01.04.2020 3,0 4,0 2,7 2,2 11,5 -6,5 52 0,0 5086 1,0 6,2 --- 10,1
31.03.2020 3,2 4,2 2,7 2,9 7,8 -2,8 58 0,0 4326 1,0 7,9 --- 10,5
30.03.2020 3,3 3,6 2,4 2,0 9,0 -5,5 52 0,0 4735 0,2 5,3 --- 5,1
29.03.2020 3,9 5,2 3,4 3,6 6,6 1,5 69 0,5 1588 2,5 11,4 --- 4,9
28.03.2020 3,7 5,4 8,6 9,3 16,2 1,2 47 0,0 4540 1,8 6,7 --- 9,9
27.03.2020 3,1 4,5 9,1 9,4 16,4 2,0 39 0,0 4291 3,8 11,3 --- 9,8
26.03.2020 2,7 3,6 4,5 4,7 9,9 -0,7 39 0,0 4317 3,9 12,1 --- 9,7
25.03.2020 2,8 3,4 2,8 3,2 9,5 -4,2 33 0,0 4664 2,6 12,7 --- 9,9
24.03.2020 3,0 3,6 2,1 2,5 8,5 -5,1 34 0,0 4508 2,2 8,8 --- 9,9
23.03.2020 3,4 3,8 1,7 1,9 6,8 -2,7 32 0,0 4434 2,7 9,3 --- 9,9
22.03.2020 4,1 4,5 1,9 2,0 6,2 -1,6 44 0,0 4414 3,9 12,8 --- 10,0
21.03.2020 5,1 6,0 4,2 4,4 6,9 2,2 57 0,0 1956 4,7 12,8 --- 6,9
20.03.2020 5,7 7,4 8,1 8,6 10,9 4,4 80 0,0 718 2,7 8,2 --- 1,2
19.03.2020 5,3 7,4 10,8 10,6 21,9 5,0 61 0,0 2649 0,5 5,2 --- 5,4
18.03.2020 4,8 6,5 8,7 8,7 16,9 0,8 68 0,0 3502 1,4 7,3 --- 8,4
17.03.2020 4,7 6,6 9,6 9,4 15,9 5,2 69 0,0 2809 0,9 5,0 --- 7,8
16.03.2020 4,1 5,6 8,5 8,8 17,4 0,4 59 0,0 3177 0,9 5,1 --- 8,5
15.03.2020 4,0 5,3 7,4 8,1 13,7 3,1 50 0,0 3348 1,2 8,1 --- 9,1
14.03.2020 4,0 5,2 4,7 5,2 10,1 -0,3 71 0,0 2263 0,8 5,1 --- 7,6
13.03.2020 4,5 5,6 5,7 6,1 10,0 2,8 60 0,3 1644 3,3 13,0 --- 4,6
12.03.2020 4,9 7,0 10,2 10,5 12,6 6,5 54 1,5 2512 3,4 12,1 --- 6,8
11.03.2020 4,0 6,1 10,1 10,5 13,7 7,1 87 19,1 1159 1,7 16,1 --- 3,5
10.03.2020 3,4 4,5 5,9 6,8 12,3 3,0 87 5,1 200 1,8 8,5 --- ---
09.03.2020 3,5 5,1 6,8 6,8 10,8 1,4 75 0,3 2071 1,6 10,0 --- 5,8
08.03.2020 2,9 4,1 6,1 6,5 10,6 -0,4 66 0,0 1370 1,3 9,1 --- 4,3
07.03.2020 3,0 4,0 3,3 3,9 7,1 -0,1 77 2,9 764 1,6 7,2 --- 2,3
06.03.2020 3,1 4,3 4,2 4,9 6,7 3,0 89 11,6 501 1,7 7,9 --- 0,8
05.03.2020 2,7 3,6 3,7 4,3 9,0 0,1 79 5,0 1313 1,3 6,6 --- 4,8
04.03.2020 3,0 3,4 1,2 1,9 8,2 -2,3 85 0,5 766 0,4 4,1 --- 2,1
03.03.2020 3,7 4,9 3,9 4,3 8,0 -0,7 76 5,0 1385 1,4 7,3 --- 5,0
02.03.2020 3,4 4,7 6,0 6,4 11,3 1,7 72 5,1 2174 1,1 5,7 --- 6,5
01.03.2020 3,2 4,4 6,2 6,8 10,0 4,7 61 0,6 1539 2,5 14,4 --- 4,8
29.02.2020 2,8 4,1 6,6 7,2 13,5 1,8 75 0,7 1572 1,9 14,3 --- 5,8
28.02.2020 2,6 3,3 2,4 2,7 5,3 0,8 76 2,6 1141 2,1 7,3 --- 4,6
27.02.2020 2,9 3,5 1,7 2,3 4,5 0,9 82 1,2 512 1,4 5,6 --- 0,7
26.02.2020 3,5 4,1 1,9 2,6 3,7 1,3 84 4,2 443 1,9 11,3 --- ---
25.02.2020 3,8 5,2 7,6 8,0 10,2 2,9 67 5,4 1568 3,1 14,1 --- 5,7
24.02.2020 3,5 4,5 4,8 5,5 10,3 2,3 73 0,3 537 1,9 13,1 --- 0,5
23.02.2020 3,4 4,9 7,9 9,1 11,7 6,2 81 5,4 169 4,1 14,8 --- ---
22.02.2020 3,0 3,9 6,5 7,3 10,1 3,4 58 0,2 829 3,1 11,9 --- 2,7
21.02.2020 3,1 4,1 5,1 5,4 7,0 3,6 62 1,6 1442 3,4 14,1 --- 5,8
20.02.2020 3,0 3,8 4,6 5,3 8,0 0,6 79 1,3 682 1,7 9,8 --- 2,0
19.02.2020 3,3 4,2 4,3 4,9 7,0 2,3 67 2,1 1043 2,6 10,5 --- 3,8
18.02.2020 3,4 4,5 5,8 6,3 8,6 5,0 67 0,7 1487 3,4 14,4 --- 4,9
17.02.2020 3,6 5,0 7,1 8,0 15,6 5,0 68 2,2 777 2,5 13,4 --- 3,0
16.02.2020 2,8 4,3 11,5 12,8 16,3 7,9 48 0,4 912 3,2 20,2 --- 2,4
15.02.2020 2,3 3,3 6,1 6,8 11,2 3,8 71 0,0 1585 1,5 7,8 --- 6,1
14.02.2020 1,9 2,8 4,5 5,1 7,2 2,9 81 0,8 788 1,3 9,1 --- 3,2
13.02.2020 1,8 2,1 1,5 2,6 5,2 -0,2 85 1,9 278 1,1 7,1 --- ---
12.02.2020 2,3 2,7 2,6 3,3 6,1 1,1 65 0,3 1151 3,4 11,6 --- 3,9
11.02.2020 2,7 3,2 3,2 3,8 6,5 1,4 66 1,6 1254 4,8 16,2 --- 4,0
10.02.2020 3,0 4,2 6,2 7,2 12,2 2,1 70 14,0 958 5,0 21,4 --- 3,1
09.02.2020 2,3 3,3 7,3 8,4 12,4 3,2 62 0,2 701 2,8 18,6 --- 2,5
08.02.2020 2,2 2,4 2,1 3,1 7,6 -2,4 72 0,0 1014 0,6 2,6 --- 4,6
07.02.2020 2,5 3,2 2,5 3,0 7,5 -0,9 76 0,0 1296 0,7 5,2 --- 5,4
06.02.2020 2,5 2,7 1,2 1,7 4,3 -1,4 82 0,0 354 0,5 2,6 --- ---
05.02.2020 3,2 3,5 2,0 2,4 6,4 -2,2 69 0,1 1437 2,0 8,8 --- 5,1
04.02.2020 3,8 4,5 2,9 3,4 6,4 1,1 88 17,2 810 2,0 8,3 --- 2,4
03.02.2020 4,0 5,3 8,6 9,4 10,9 6,5 67 0,8 798 2,6 10,3 --- 2,6
02.02.2020 3,8 5,0 7,5 8,4 11,7 5,9 71 4,3 212 2,4 13,3 --- ---
01.02.2020 3,6 5,2 9,8 10,9 11,8 8,9 78 7,0 63 2,4 11,1 --- ---
31.01.2020 2,6 4,1 10,8 11,6 14,1 8,0 70 0,2 835 3,4 11,9 --- 3,4
30.01.2020 1,9 2,6 5,0 5,8 7,9 2,5 72 0,0 585 2,1 9,7 --- 2,0
29.01.2020 1,9 2,4 2,4 3,2 4,6 2,2 74 0,0 394 2,5 9,6 --- 0,5
28.01.2020 2,1 2,9 3,6 4,5 6,6 2,2 77 5,0 448 2,5 14,5 --- 1,4
27.01.2020 1,7 2,4 4,1 5,0 6,9 2,5 91 1,8 154 0,8 5,3 --- ---
26.01.2020 1,3 1,8 1,4 1,6 3,6 -0,4 92 0,0 440 0,4 2,1 --- ---
25.01.2020 1,0 1,3 -0,7 -0,5 0,8 -1,7 88 0,0 364 0,6 2,5 --- ---
24.01.2020 1,2 1,1 -1,9 -1,4 0,2 -4,5 89 0,0 179 0,9 5,8 --- ---
23.01.2020 1,3 1,5 -0,2 0,4 2,5 -3,2 88 0,0 386 0,6 3,3 --- ---
22.01.2020 1,3 1,0 -2,9 -2,6 0,8 -6,4 92 0,2 271 0,3 1,8 --- ---
21.01.2020 2,1 1,7 -3,6 -2,9 3,8 -6,5 91 0,1 845 0,3 1,6 --- 2,3
20.01.2020 2,6 3,0 0,8 1,4 5,6 -2,8 83 0,0 642 0,4 3,0 --- 1,4
19.01.2020 2,8 3,1 1,5 2,2 3,6 -0,1 90 1,5 348 0,6 3,9 --- ---
18.01.2020 3,1 3,5 2,9 4,0 7,0 0,4 76 0,0 398 1,5 7,7 --- 0,3
17.01.2020 3,2 3,5 4,1 5,6 10,3 1,0 82 0,2 581 0,8 4,8 --- 1,5
16.01.2020 3,6 4,4 5,7 7,2 13,0 2,7 81 0,4 740 0,7 6,1 --- 2,8
15.01.2020 3,7 4,2 11,0 11,3 13,9 9,7 47 0,0 919 0,9 8,1 --- 4,2
14.01.2020 3,1 3,3 9,4 9,3 11,2 5,5 55 0,0 612 0,8 9,5 --- 0,1
13.01.2020 2,7 2,9 6,3 5,9 6,9 5,0 75 0,0 361 0,1 4,2 --- 0,4
12.01.2020 2,7 2,1 2,8 2,7 5,6 -0,4 76 0,0 168 0,9 8,9 --- 1,0
11.01.2020 3,8 3,8 4,3 4,3 5,3 1,2 68 0,0 933 0,2 4,3 --- 3,2
10.01.2020 4,2 5,6 7,7 8,2 9,6 5,1 77 1,1 346 0,4 5,9 --- ---
09.01.2020 3,2 4,7 8,0 8,6 10,6 6,0 88 15,2 109 0,0 1,9 --- ---
08.01.2020 2,1 3,1 4,8 5,5 6,2 4,1 85 1,8 95 0,7 4,4 --- ---
07.01.2020 1,8 2,2 1,5 2,4 3,5 -0,7 89 0,5 365 0,3 3,2 --- 0,9
06.01.2020 1,9 2,6 2,2 3,1 7,4 -0,9 86 0,0 436 0,5 3,8 --- 0,9
05.01.2020 1,7 2,1 0,9 1,7 3,8 -1,5 92 1,0 236 0,2 4,5 --- ---
04.01.2020 1,7 2,2 2,7 3,9 5,5 1,3 85 4,8 91 2,1 11,1 --- ---
03.01.2020 1,0 1,3 4,4 5,3 8,2 2,0 89 2,0 39 1,5 10,2 --- ---
02.01.2020 1,1 0,7 -3,3 -2,6 2,2 -6,9 93 0,1 320 0,7 3,3 --- ---
01.01.2020 1,5 1,4 -2,7 -1,6 5,1 -4,9 90 0,0 585 0,3 2,1 --- 1,7

Mittelwerte (Temperaturen, Strahlung, rel. Feuchte, Wind), Summe (Regen) für 2020
8,9 10,5 12,1 12,1 64 408 3.394 1,4

Landesbetrieb Landwirtschaft Hessen 2009

      Werte bis 5 Uhr SommerzeitCSV-Datei: Niedergude20.csvDiagramm: Niedergude